createdAt,value
2018-11-06T00:01:13.893Z,99.77
2018-11-06T00:03:46.872Z,125.93
2018-11-06T00:06:15.008Z,107.83
2018-11-06T00:08:43.163Z,117.00
2018-11-06T00:11:12.008Z,112.97
2018-11-06T00:13:40.944Z,101.65
2018-11-06T00:16:10.037Z,105.90
2018-11-06T00:18:38.163Z,93.47
2018-11-06T00:21:06.344Z,98.20
2018-11-06T00:23:34.543Z,120.73
2018-11-06T00:26:02.654Z,104.10
2018-11-06T00:28:30.780Z,104.57
2018-11-06T00:30:58.879Z,104.80
2018-11-06T00:33:27.006Z,101.13
2018-11-06T00:35:55.071Z,110.33
2018-11-06T00:38:23.195Z,115.80
2018-11-06T00:40:51.304Z,109.83
2018-11-06T00:43:19.368Z,116.03
2018-11-06T00:45:47.521Z,111.93
2018-11-06T00:48:15.702Z,108.63
2018-11-06T00:50:43.812Z,112.30
2018-11-06T00:53:11.891Z,111.83
2018-11-06T00:55:39.964Z,113.93
2018-11-06T00:58:08.072Z,104.03
2018-11-06T01:00:36.149Z,99.33
2018-11-06T01:03:04.244Z,99.20
2018-11-06T01:05:32.339Z,99.10
2018-11-06T01:08:00.448Z,102.37
2018-11-06T01:10:28.551Z,94.27
2018-11-06T01:12:56.651Z,103.83
2018-11-06T01:15:24.755Z,106.30
2018-11-06T01:17:52.876Z,105.03
2018-11-06T01:20:20.988Z,96.90
2018-11-06T01:22:49.072Z,108.73
2018-11-06T01:25:17.268Z,110.40
2018-11-06T01:27:45.365Z,102.10
2018-11-06T01:30:15.805Z,115.23
2018-11-06T01:32:44.595Z,108.20
2018-11-06T01:35:13.522Z,118.30
2018-11-06T01:37:42.501Z,115.40
2018-11-06T01:40:12.628Z,108.65
2018-11-06T01:42:41.092Z,116.97
2018-11-06T01:45:11.164Z,113.90
2018-11-06T01:47:39.543Z,109.70
2018-11-06T01:50:08.829Z,103.77
2018-11-06T01:52:36.990Z,125.17
2018-11-06T01:55:05.421Z,106.37
2018-11-06T01:57:33.541Z,108.35
2018-11-06T02:00:01.705Z,117.17
2018-11-06T02:02:29.857Z,107.97
2018-11-06T02:04:57.989Z,109.17
2018-11-06T02:07:26.117Z,98.73
2018-11-06T02:09:54.249Z,109.60
2018-11-06T02:12:22.387Z,114.92
2018-11-06T02:14:50.551Z,130.63
2018-11-06T02:17:18.709Z,110.40
2018-11-06T02:19:46.874Z,102.47
2018-11-06T02:22:15.013Z,102.97
2018-11-06T02:24:43.193Z,113.30
2018-11-06T02:27:11.325Z,105.30
2018-11-06T02:29:39.450Z,111.23
2018-11-06T02:32:07.587Z,106.97
2018-11-06T02:34:35.718Z,102.67
2018-11-06T02:37:03.863Z,106.40
2018-11-06T02:39:31.995Z,116.00
2018-11-06T02:42:00.100Z,107.22
2018-11-06T02:44:28.209Z,126.07
2018-11-06T02:46:56.332Z,119.43
2018-11-06T02:49:24.478Z,111.00
2018-11-06T02:51:52.632Z,108.37
2018-11-06T02:54:20.795Z,117.40
2018-11-06T02:56:48.946Z,107.23
2018-11-06T02:59:17.107Z,128.07
2018-11-06T03:01:45.229Z,105.07
2018-11-06T03:04:13.428Z,109.97
2018-11-06T03:06:41.577Z,109.07
2018-11-06T03:09:09.730Z,117.57
2018-11-06T03:11:38.137Z,112.97
2018-11-06T03:14:06.267Z,115.60
2018-11-06T03:16:34.369Z,104.53
2018-11-06T03:19:02.498Z,102.87
2018-11-06T03:21:30.614Z,100.37
2018-11-06T03:23:58.768Z,110.03
2018-11-06T03:26:27.612Z,127.20
2018-11-06T03:28:55.784Z,112.00
2018-11-06T03:31:23.932Z,117.28
2018-11-06T03:33:52.056Z,126.25
2018-11-06T03:36:20.197Z,121.35
2018-11-06T03:38:48.379Z,111.75
2018-11-06T03:41:16.505Z,119.80
2018-11-06T03:43:45.052Z,112.40
2018-11-06T03:46:13.179Z,147.97
2018-11-06T03:48:41.289Z,143.47
2018-11-06T03:51:09.439Z,147.67
2018-11-06T03:53:37.568Z,158.05
2018-11-06T03:56:06.312Z,137.85
2018-11-06T03:58:34.477Z,156.70
2018-11-06T04:01:02.619Z,164.70
2018-11-06T04:03:30.769Z,165.70
2018-11-06T04:05:58.933Z,175.10
2018-11-06T04:08:27.104Z,164.87
2018-11-06T04:10:55.257Z,179.90
2018-11-06T04:13:23.394Z,189.17
2018-11-06T04:15:51.573Z,164.47
2018-11-06T04:18:19.709Z,202.87
2018-11-06T04:20:47.867Z,256.50
2018-11-06T04:23:16.090Z,212.40
2018-11-06T04:25:44.254Z,271.03
2018-11-06T04:28:12.376Z,246.17
2018-11-06T04:30:40.542Z,196.93
2018-11-06T04:33:08.716Z,243.40
2018-11-06T04:35:36.861Z,188.63
2018-11-06T04:38:05.102Z,211.93
2018-11-06T04:40:33.237Z,228.03
2018-11-06T04:43:01.388Z,192.40
2018-11-06T04:45:29.504Z,188.50
2018-11-06T04:47:57.657Z,194.53
2018-11-06T04:50:26.014Z,350.57
2018-11-06T04:52:54.180Z,164.35
2018-11-06T04:55:22.316Z,194.93
2018-11-06T04:57:50.517Z,263.30
2018-11-06T05:00:18.713Z,210.63
2018-11-06T05:02:46.823Z,178.07
2018-11-06T05:05:14.981Z,182.00
2018-11-06T05:07:43.138Z,185.30
2018-11-06T05:10:14.347Z,190.50
2018-11-06T05:12:42.497Z,187.80
2018-11-06T05:15:13.781Z,157.40
2018-11-06T05:17:42.031Z,189.00
2018-11-06T05:20:13.158Z,228.92
2018-11-06T05:22:41.374Z,157.03
2018-11-06T05:25:09.846Z,183.50
2018-11-06T05:27:38.377Z,220.57
2018-11-06T05:30:06.943Z,233.95
2018-11-06T05:32:35.123Z,190.37
2018-11-06T05:35:03.300Z,202.23
2018-11-06T05:37:31.445Z,178.13
2018-11-06T05:40:11.032Z,205.87
2018-11-06T05:42:39.161Z,181.13
2018-11-06T05:45:07.314Z,166.60
2018-11-06T05:47:35.466Z,182.73
2018-11-06T05:50:03.695Z,152.03
2018-11-06T05:52:31.926Z,147.60
2018-11-06T05:55:00.079Z,172.70
2018-11-06T05:57:28.241Z,164.82
2018-11-06T05:59:56.403Z,157.05
2018-11-06T06:02:24.560Z,160.37
2018-11-06T06:04:52.772Z,149.17
2018-11-06T06:07:20.937Z,157.97
2018-11-06T06:09:49.224Z,131.17
2018-11-06T06:12:17.338Z,153.17
2018-11-06T06:14:45.497Z,123.10
2018-11-06T06:17:13.745Z,130.23
2018-11-06T06:19:41.800Z,112.00
2018-11-06T06:22:09.970Z,100.50
2018-11-06T06:24:38.100Z,109.07
2018-11-06T06:27:06.227Z,105.77
2018-11-06T06:29:34.446Z,109.43
2018-11-06T06:32:02.604Z,121.37
2018-11-06T06:34:30.865Z,105.17
2018-11-06T06:36:58.979Z,101.53
2018-11-06T06:39:27.122Z,121.47
2018-11-06T06:41:55.278Z,112.87
2018-11-06T06:44:23.416Z,102.83
2018-11-06T06:46:51.587Z,138.57
2018-11-06T06:49:19.718Z,96.20
2018-11-06T06:51:47.832Z,124.30
2018-11-06T06:54:16.010Z,100.42
2018-11-06T06:56:44.106Z,89.30
2018-11-06T06:59:12.251Z,88.90
2018-11-06T07:01:40.373Z,85.00
2018-11-06T07:04:08.729Z,138.63
2018-11-06T07:06:36.890Z,90.57
2018-11-06T07:09:07.627Z,112.75
2018-11-06T07:11:35.963Z,101.97
2018-11-06T07:14:04.121Z,111.92
2018-11-06T07:16:32.240Z,121.85
2018-11-06T07:19:00.364Z,104.60
2018-11-06T07:21:28.527Z,101.25
2018-11-06T07:23:56.726Z,113.57
2018-11-06T07:26:24.844Z,110.60
2018-11-06T07:28:53.064Z,110.55
2018-11-06T07:31:21.186Z,111.80
2018-11-06T07:33:49.337Z,118.40
2018-11-06T07:36:17.469Z,150.05
2018-11-06T07:38:45.582Z,169.62
2018-11-06T07:41:13.788Z,198.65
2018-11-06T07:43:41.886Z,158.90
2018-11-06T07:46:10.020Z,127.10
2018-11-06T07:48:38.191Z,119.10
2018-11-06T07:51:06.370Z,114.95
2018-11-06T07:53:34.534Z,129.20
2018-11-06T07:56:02.698Z,137.37
2018-11-06T07:58:30.841Z,118.60
2018-11-06T08:00:58.981Z,115.10
2018-11-06T08:03:27.167Z,120.10
2018-11-06T08:05:55.310Z,126.43
2018-11-06T08:08:23.429Z,104.53
2018-11-06T08:10:51.585Z,101.30
2018-11-06T08:13:19.712Z,87.10
2018-11-06T08:15:47.910Z,100.90
2018-11-06T08:18:16.095Z,107.13
2018-11-06T08:20:44.315Z,93.57
2018-11-06T08:23:12.443Z,109.57
2018-11-06T08:25:40.604Z,109.97
2018-11-06T08:28:08.757Z,106.73
2018-11-06T08:30:36.933Z,100.00
2018-11-06T08:33:05.201Z,119.67
2018-11-06T08:35:33.365Z,112.37
2018-11-06T08:38:01.517Z,107.37
2018-11-06T08:40:29.637Z,102.47
2018-11-06T08:42:57.753Z,89.67
2018-11-06T08:45:25.925Z,93.73
2018-11-06T08:47:54.136Z,105.52
2018-11-06T08:50:22.248Z,96.65
2018-11-06T08:52:50.406Z,94.40
2018-11-06T08:55:18.547Z,89.43
2018-11-06T08:57:46.898Z,91.10
2018-11-06T09:00:17.330Z,91.28
2018-11-06T09:02:46.635Z,83.22
2018-11-06T09:05:15.743Z,90.85
2018-11-06T09:07:44.292Z,94.85
2018-11-06T09:10:13.532Z,85.42
2018-11-06T09:12:41.696Z,90.70
2018-11-06T09:15:11.744Z,83.77
2018-11-06T09:17:40.096Z,89.77
2018-11-06T09:20:09.610Z,94.10
2018-11-06T09:22:37.762Z,91.03
2018-11-06T09:25:07.188Z,81.67
2018-11-06T09:27:35.326Z,79.42
2018-11-06T09:30:03.469Z,80.20
2018-11-06T09:32:31.620Z,85.93
2018-11-06T09:34:59.803Z,78.02
2018-11-06T09:37:27.927Z,78.92
2018-11-06T09:39:56.048Z,78.37
2018-11-06T09:42:24.213Z,78.78
2018-11-06T09:44:52.390Z,76.90
2018-11-06T09:47:20.583Z,77.60
2018-11-06T09:49:48.688Z,66.83
2018-11-06T09:52:16.813Z,70.47
2018-11-06T09:54:44.950Z,69.37
2018-11-06T09:57:13.085Z,69.70
2018-11-06T09:59:41.279Z,63.30
2018-11-06T10:02:09.482Z,66.80
2018-11-06T10:04:37.650Z,60.77
2018-11-06T10:07:06.612Z,65.50
2018-11-06T10:09:34.546Z,66.40
2018-11-06T10:12:02.701Z,58.40
2018-11-06T10:14:30.845Z,57.10
2018-11-06T10:16:58.996Z,60.90
2018-11-06T10:19:27.136Z,52.47
2018-11-06T10:21:55.279Z,59.00
2018-11-06T10:24:23.419Z,55.00
2018-11-06T10:26:51.559Z,53.80
2018-11-06T10:29:19.719Z,51.30
2018-11-06T10:31:47.905Z,51.93
2018-11-06T10:34:16.070Z,53.53
2018-11-06T10:36:44.256Z,61.20
2018-11-06T10:39:13.723Z,49.43
2018-11-06T10:41:41.870Z,51.37
2018-11-06T10:44:10.069Z,45.23
2018-11-06T10:46:38.670Z,47.50
2018-11-06T10:49:07.665Z,52.20
2018-11-06T10:51:35.869Z,46.73
2018-11-06T10:54:03.993Z,45.43
2018-11-06T10:56:32.159Z,45.28
2018-11-06T10:59:00.324Z,53.80
2018-11-06T11:01:33.955Z,48.20
2018-11-06T11:04:07.452Z,44.60
2018-11-06T11:06:35.570Z,45.07
2018-11-06T11:09:04.342Z,49.08
2018-11-06T11:11:32.472Z,48.30
2018-11-06T11:14:00.629Z,43.58
2018-11-06T11:16:28.757Z,43.60
2018-11-06T11:18:56.933Z,46.67
2018-11-06T11:21:25.081Z,43.60
2018-11-06T11:23:53.201Z,43.83
2018-11-06T11:26:21.343Z,47.73
2018-11-06T11:28:49.470Z,45.00
2018-11-06T11:31:17.656Z,41.90
2018-11-06T11:33:45.802Z,44.93
2018-11-06T11:36:13.902Z,41.77
2018-11-06T11:38:42.031Z,45.93
2018-11-06T11:41:10.219Z,42.38
2018-11-06T11:43:39.600Z,41.83
2018-11-06T11:46:07.765Z,46.67
2018-11-06T11:48:35.914Z,41.53
2018-11-06T11:51:04.074Z,40.40
2018-11-06T11:53:32.190Z,39.60
2018-11-06T11:56:00.352Z,39.27
2018-11-06T11:58:28.501Z,41.87
2018-11-06T12:00:56.667Z,44.40
2018-11-06T12:03:24.845Z,41.20
2018-11-06T12:05:53.042Z,46.20
2018-11-06T12:08:21.184Z,41.60
2018-11-06T12:10:49.349Z,36.23
2018-11-06T12:13:17.484Z,35.93
2018-11-06T12:15:45.601Z,37.50
2018-11-06T12:18:13.793Z,36.90
2018-11-06T12:20:41.862Z,40.10
2018-11-06T12:23:10.009Z,38.40
2018-11-06T12:25:38.295Z,37.13
2018-11-06T12:28:06.365Z,35.03
2018-11-06T12:30:34.510Z,36.60
2018-11-06T12:33:02.641Z,35.17
2018-11-06T12:35:30.966Z,34.27
2018-11-06T12:37:59.123Z,31.23
2018-11-06T12:40:27.342Z,33.08
2018-11-06T12:42:55.505Z,36.63
2018-11-06T12:45:23.605Z,34.60
2018-11-06T12:47:51.760Z,37.10
2018-11-06T12:50:19.961Z,34.58
2018-11-06T12:52:48.031Z,38.00
2018-11-06T12:55:16.687Z,34.50
2018-11-06T12:57:45.056Z,33.28
2018-11-06T13:00:15.901Z,31.97
2018-11-06T13:02:44.064Z,34.70
2018-11-06T13:05:12.265Z,36.23
2018-11-06T13:07:41.462Z,34.67
2018-11-06T13:10:10.456Z,33.63
2018-11-06T13:12:39.055Z,34.60
2018-11-06T13:15:07.738Z,33.30
2018-11-06T13:17:36.466Z,30.95
2018-11-06T13:20:05.972Z,38.77
2018-11-06T13:22:34.118Z,31.23
2018-11-06T13:25:02.249Z,33.33
2018-11-06T13:27:30.405Z,34.07
2018-11-06T13:29:58.531Z,33.17
2018-11-06T13:32:26.793Z,33.43
2018-11-06T13:34:54.862Z,32.80
2018-11-06T13:37:23.005Z,35.37
2018-11-06T13:39:51.150Z,34.47
2018-11-06T13:42:19.311Z,34.10
2018-11-06T13:44:47.715Z,34.33
2018-11-06T13:47:15.596Z,32.83
2018-11-06T13:49:43.706Z,33.37
2018-11-06T13:52:11.902Z,32.53
2018-11-06T13:54:40.010Z,32.30
2018-11-06T13:57:08.430Z,32.63
2018-11-06T13:59:36.577Z,33.40
2018-11-06T14:02:05.031Z,33.47
2018-11-06T14:04:33.188Z,33.30
2018-11-06T14:07:01.374Z,32.07
2018-11-06T14:09:29.518Z,31.83
2018-11-06T14:11:57.654Z,33.33
2018-11-06T14:14:25.813Z,32.43
2018-11-06T14:16:53.962Z,34.07
2018-11-06T14:19:22.078Z,33.97
2018-11-06T14:21:50.215Z,31.23
2018-11-06T14:24:18.367Z,31.47
2018-11-06T14:26:46.534Z,31.62
2018-11-06T14:29:14.685Z,30.12
2018-11-06T14:31:42.817Z,30.90
2018-11-06T14:34:10.970Z,34.43
2018-11-06T14:36:39.138Z,30.75
2018-11-06T14:39:08.023Z,38.23
2018-11-06T14:41:36.182Z,33.53
2018-11-06T14:44:04.330Z,37.33
2018-11-06T14:46:32.457Z,34.67
2018-11-06T14:49:00.666Z,31.60
2018-11-06T14:51:28.755Z,37.30
2018-11-06T14:53:56.912Z,33.97
2018-11-06T14:56:25.037Z,37.80
2018-11-06T14:58:53.189Z,34.77
2018-11-06T15:01:21.382Z,37.20
2018-11-06T15:03:49.592Z,33.00
2018-11-06T15:06:17.786Z,33.10
2018-11-06T15:08:45.918Z,33.03
2018-11-06T15:11:14.070Z,35.27
2018-11-06T15:13:42.665Z,34.27
2018-11-06T15:16:10.794Z,33.67
2018-11-06T15:18:38.955Z,36.30
2018-11-06T15:21:07.066Z,35.67
2018-11-06T15:23:35.189Z,38.53
2018-11-06T15:26:03.324Z,37.10
2018-11-06T15:28:31.454Z,34.70
2018-11-06T15:30:59.578Z,39.20
2018-11-06T15:33:27.742Z,39.30
2018-11-06T15:35:55.880Z,32.50
2018-11-06T15:38:23.997Z,35.98
2018-11-06T15:40:52.209Z,37.75
2018-11-06T15:43:20.297Z,39.75
2018-11-06T15:45:48.434Z,34.73
2018-11-06T15:48:16.591Z,32.90
2018-11-06T15:50:44.854Z,40.50
2018-11-06T15:53:13.032Z,43.57
2018-11-06T15:55:41.170Z,44.73
2018-11-06T15:58:09.330Z,42.13
2018-11-06T16:00:37.539Z,38.33
2018-11-06T16:03:05.618Z,42.73
2018-11-06T16:05:33.821Z,43.20
2018-11-06T16:08:01.950Z,45.17
2018-11-06T16:10:30.124Z,47.27
2018-11-06T16:12:58.263Z,46.37
2018-11-06T16:15:26.465Z,47.57
2018-11-06T16:17:54.605Z,42.73
2018-11-06T16:20:22.796Z,44.50
2018-11-06T16:22:51.001Z,42.60
2018-11-06T16:25:19.805Z,48.47
2018-11-06T16:27:48.189Z,36.93
2018-11-06T16:30:18.618Z,42.05
2018-11-06T16:32:46.807Z,45.78
2018-11-06T16:35:16.205Z,50.03
2018-11-06T16:37:44.919Z,48.83
2018-11-06T16:40:13.679Z,45.77
2018-11-06T16:42:42.677Z,47.80
2018-11-06T16:45:13.629Z,48.38
2018-11-06T16:47:42.326Z,51.90
2018-11-06T16:50:11.725Z,48.20
2018-11-06T16:52:39.881Z,52.70
2018-11-06T16:55:08.620Z,54.95
2018-11-06T16:57:36.867Z,56.20
2018-11-06T17:00:06.134Z,54.60
2018-11-06T17:02:34.134Z,58.10
2018-11-06T17:05:02.262Z,53.33
2018-11-06T17:07:30.437Z,55.33
2018-11-06T17:09:58.582Z,54.37
2018-11-06T17:12:26.797Z,54.63
2018-11-06T17:14:54.934Z,65.83
2018-11-06T17:17:23.176Z,67.27
2018-11-06T17:19:51.261Z,56.57
2018-11-06T17:22:19.389Z,64.73
2018-11-06T17:24:47.536Z,64.00
2018-11-06T17:27:15.643Z,59.67
2018-11-06T17:29:43.921Z,61.10
2018-11-06T17:32:12.080Z,63.70
2018-11-06T17:34:40.290Z,56.67
2018-11-06T17:37:08.401Z,61.90
2018-11-06T17:39:36.648Z,60.73
2018-11-06T17:42:04.734Z,61.87
2018-11-06T17:44:32.860Z,59.73
2018-11-06T17:47:01.026Z,62.60
2018-11-06T17:49:29.132Z,58.27
2018-11-06T17:51:57.327Z,63.77
2018-11-06T17:54:25.421Z,63.40
2018-11-06T17:56:53.547Z,57.47
2018-11-06T17:59:21.722Z,61.23
2018-11-06T18:01:49.952Z,55.07
2018-11-06T18:04:18.273Z,56.63
2018-11-06T18:06:46.289Z,66.57
2018-11-06T18:09:14.425Z,57.07
2018-11-06T18:11:43.021Z,58.70
2018-11-06T18:14:11.182Z,59.27
2018-11-06T18:16:39.325Z,56.75
2018-11-06T18:19:07.491Z,55.50
2018-11-06T18:21:35.709Z,58.45
2018-11-06T18:24:03.957Z,58.87
2018-11-06T18:26:32.122Z,60.55
2018-11-06T18:29:00.244Z,61.00
2018-11-06T18:31:28.395Z,65.50
2018-11-06T18:33:57.213Z,69.30
2018-11-06T18:36:25.338Z,70.27
2018-11-06T18:38:53.489Z,64.87
2018-11-06T18:41:22.446Z,68.87
2018-11-06T18:43:50.602Z,65.15
2018-11-06T18:46:18.737Z,66.55
2018-11-06T18:48:46.967Z,65.08
2018-11-06T18:51:15.082Z,71.87
2018-11-06T18:53:43.206Z,67.00
2018-11-06T18:56:11.363Z,61.33
2018-11-06T18:58:39.532Z,71.07
2018-11-06T19:01:07.701Z,64.73
2018-11-06T19:03:35.917Z,55.73
2018-11-06T19:06:04.157Z,57.63
2018-11-06T19:08:32.437Z,56.57
2018-11-06T19:11:00.596Z,49.17
2018-11-06T19:13:28.738Z,55.63
2018-11-06T19:15:56.889Z,54.60
2018-11-06T19:18:25.027Z,58.37
2018-11-06T19:20:53.126Z,55.27
2018-11-06T19:23:21.262Z,56.23
2018-11-06T19:25:49.421Z,46.70
2018-11-06T19:28:17.537Z,59.13
2018-11-06T19:30:45.685Z,62.20
2018-11-06T19:33:13.903Z,63.03
2018-11-06T19:35:42.094Z,64.12
2018-11-06T19:38:10.265Z,70.30
2018-11-06T19:40:38.525Z,66.50
2018-11-06T19:43:06.588Z,62.60
2018-11-06T19:45:34.717Z,61.00
2018-11-06T19:48:02.933Z,62.50
2018-11-06T19:50:31.067Z,59.80
2018-11-06T19:52:59.242Z,59.47
2018-11-06T19:55:27.405Z,60.00
2018-11-06T19:57:56.011Z,54.13
2018-11-06T20:00:24.271Z,55.27
2018-11-06T20:02:53.479Z,48.67
2018-11-06T20:05:21.855Z,44.23
2018-11-06T20:07:51.030Z,41.77
2018-11-06T20:10:20.756Z,41.30
2018-11-06T20:12:50.141Z,43.17
2018-11-06T20:15:18.505Z,45.20
2018-11-06T20:17:47.119Z,57.95
2018-11-06T20:20:16.761Z,53.37
2018-11-06T20:22:45.498Z,50.45
2018-11-06T20:25:13.877Z,52.93
2018-11-06T20:27:42.364Z,61.50
2018-11-06T20:30:13.729Z,59.97
2018-11-06T20:32:42.209Z,55.70
2018-11-06T20:35:11.441Z,54.70
2018-11-06T20:37:39.634Z,58.50
2018-11-06T20:40:11.055Z,54.80
2018-11-06T20:42:39.603Z,56.37
2018-11-06T20:45:08.938Z,54.80
2018-11-06T20:47:37.173Z,57.75
2018-11-06T20:50:10.378Z,51.42
2018-11-06T20:52:38.586Z,52.23
2018-11-06T20:55:07.434Z,50.93
2018-11-06T20:57:35.993Z,52.97
2018-11-06T21:00:04.479Z,48.33
2018-11-06T21:02:32.534Z,54.13
2018-11-06T21:05:00.749Z,54.73
2018-11-06T21:07:29.130Z,51.80
2018-11-06T21:09:57.508Z,57.75
2018-11-06T21:12:25.868Z,57.57
2018-11-06T21:14:54.095Z,61.33
2018-11-06T21:17:22.315Z,59.13
2018-11-06T21:19:50.706Z,61.43
2018-11-06T21:22:18.802Z,59.17
2018-11-06T21:24:47.028Z,56.00
2018-11-06T21:27:15.274Z,56.45
2018-11-06T21:29:43.381Z,55.03
2018-11-06T21:32:11.589Z,64.27
2018-11-06T21:34:39.721Z,58.77
2018-11-06T21:37:07.845Z,70.33
2018-11-06T21:39:35.989Z,67.03
2018-11-06T21:42:04.141Z,71.77
2018-11-06T21:44:33.048Z,57.35
2018-11-06T21:47:01.229Z,55.78
2018-11-06T21:49:29.353Z,52.83
2018-11-06T21:51:57.500Z,60.15
2018-11-06T21:54:25.680Z,54.70
2018-11-06T21:56:53.805Z,61.98
2018-11-06T21:59:21.986Z,63.35
2018-11-06T22:01:50.193Z,69.57
2018-11-06T22:04:18.370Z,67.83
2018-11-06T22:06:46.547Z,73.70
2018-11-06T22:09:14.705Z,75.00
2018-11-06T22:11:42.832Z,74.97
2018-11-06T22:14:10.984Z,66.23
2018-11-06T22:16:39.113Z,60.97
2018-11-06T22:19:07.281Z,72.82
2018-11-06T22:21:35.493Z,63.43
2018-11-06T22:24:03.609Z,65.80
2018-11-06T22:26:31.758Z,67.20
2018-11-06T22:28:59.914Z,73.90
2018-11-06T22:31:28.126Z,71.40
2018-11-06T22:33:56.234Z,68.80
2018-11-06T22:36:24.370Z,67.97
2018-11-06T22:38:52.498Z,74.85
2018-11-06T22:41:20.744Z,61.97
2018-11-06T22:43:49.342Z,54.53
2018-11-06T22:46:17.513Z,57.20
2018-11-06T22:48:45.664Z,56.20
2018-11-06T22:51:13.834Z,60.43
2018-11-06T22:53:42.201Z,63.60
2018-11-06T22:56:10.345Z,60.05
2018-11-06T22:58:38.551Z,63.48
2018-11-06T23:01:12.151Z,51.77
2018-11-06T23:03:40.873Z,51.85
2018-11-06T23:06:09.258Z,54.58
2018-11-06T23:08:37.253Z,57.55
2018-11-06T23:11:05.612Z,69.10
2018-11-06T23:13:33.818Z,69.43
2018-11-06T23:16:01.949Z,80.60
2018-11-06T23:18:30.077Z,67.57
2018-11-06T23:20:58.257Z,62.33
2018-11-06T23:23:26.385Z,66.37
2018-11-06T23:25:54.542Z,72.53
2018-11-06T23:28:22.718Z,71.17
2018-11-06T23:30:50.872Z,91.00
2018-11-06T23:33:19.006Z,83.17
2018-11-06T23:35:47.162Z,87.17
2018-11-06T23:38:15.330Z,65.75
2018-11-06T23:40:43.502Z,67.87
2018-11-06T23:43:11.649Z,64.60
2018-11-06T23:45:39.788Z,83.20
2018-11-06T23:48:07.928Z,90.05
2018-11-06T23:50:36.077Z,74.05
2018-11-06T23:53:04.581Z,76.03
2018-11-06T23:55:32.685Z,73.60
2018-11-06T23:58:01.620Z,67.73
